sensor_id;sensor_type;location;lat;lon;timestamp;pressure;altitude;pressure_sealevel;temperature;humidity
47430;BME280;33181;49.246;7.372;2023-10-13T00:02:02;98830.22;;;16.51;100.00
47430;BME280;33181;49.246;7.372;2023-10-13T00:04:31;98828.41;;;16.52;100.00
47430;BME280;33181;49.246;7.372;2023-10-13T00:07:07;98814.50;;;16.50;100.00
47430;BME280;33181;49.246;7.372;2023-10-13T00:09:34;98819.63;;;16.51;100.00
47430;BME280;33181;49.246;7.372;2023-10-13T00:12:07;98829.72;;;16.48;100.00
47430;BME280;33181;49.246;7.372;2023-10-13T00:14:41;98828.22;;;16.45;100.00
47430;BME280;33181;49.246;7.372;2023-10-13T00:17:10;98826.06;;;16.40;100.00
47430;BME280;33181;49.246;7.372;2023-10-13T00:19:44;98824.22;;;16.41;100.00
47430;BME280;33181;49.246;7.372;2023-10-13T00:22:17;98818.41;;;16.37;100.00
47430;BME280;33181;49.246;7.372;2023-10-13T00:24:45;98816.78;;;16.36;100.00
47430;BME280;33181;49.246;7.372;2023-10-13T00:27:18;98820.06;;;16.30;100.00
47430;BME280;33181;49.246;7.372;2023-10-13T00:30:11;98818.53;;;16.28;100.00
47430;BME280;33181;49.246;7.372;2023-10-13T00:32:59;98816.34;;;16.23;100.00
47430;BME280;33181;49.246;7.372;2023-10-13T00:35:29;98810.84;;;16.16;100.00
47430;BME280;33181;49.246;7.372;2023-10-13T00:38:05;98811.84;;;16.15;100.00
47430;BME280;33181;49.246;7.372;2023-10-13T00:40:43;98818.47;;;16.11;100.00
47430;BME280;33181;49.246;7.372;2023-10-13T00:43:22;98828.00;;;16.04;100.00
47430;BME280;33181;49.246;7.372;2023-10-13T00:45:54;98825.66;;;16.01;100.00
47430;BME280;33181;49.246;7.372;2023-10-13T00:48:36;98822.69;;;15.96;100.00
47430;BME280;33181;49.246;7.372;2023-10-13T00:51:09;98819.19;;;15.95;100.00
47430;BME280;33181;49.246;7.372;2023-10-13T00:53:45;98808.22;;;15.90;100.00
47430;BME280;33181;49.246;7.372;2023-10-13T00:56:14;98805.72;;;15.89;100.00
47430;BME280;33181;49.246;7.372;2023-10-13T00:58:48;98804.25;;;15.86;100.00
47430;BME280;33181;49.246;7.372;2023-10-13T01:01:16;98790.47;;;15.83;100.00
47430;BME280;33181;49.246;7.372;2023-10-13T01:03:51;98785.19;;;15.83;100.00
47430;BME280;33181;49.246;7.372;2023-10-13T01:06:22;98774.34;;;15.76;100.00
47430;BME280;33181;49.246;7.372;2023-10-13T01:09:02;98766.13;;;15.61;100.00
47430;BME280;33181;49.246;7.372;2023-10-13T01:11:49;98761.47;;;15.55;100.00
47430;BME280;33181;49.246;7.372;2023-10-13T01:14:18;98765.41;;;15.51;100.00
47430;BME280;33181;49.246;7.372;2023-10-13T01:16:48;98775.31;;;15.49;100.00
47430;BME280;33181;49.246;7.372;2023-10-13T01:19:18;98780.63;;;15.49;100.00
47430;BME280;33181;49.246;7.372;2023-10-13T01:21:51;98781.53;;;15.40;100.00
47430;BME280;33181;49.246;7.372;2023-10-13T01:24:30;98777.69;;;15.34;100.00
47430;BME280;33181;49.246;7.372;2023-10-13T01:27:07;98773.38;;;15.33;100.00
47430;BME280;33181;49.246;7.372;2023-10-13T01:29:49;98763.78;;;15.32;100.00
47430;BME280;33181;49.246;7.372;2023-10-13T01:32:20;98766.25;;;15.34;100.00
47430;BME280;33181;49.246;7.372;2023-10-13T01:34:46;98760.81;;;15.35;100.00
47430;BME280;33181;49.246;7.372;2023-10-13T01:37:14;98764.13;;;15.37;100.00
47430;BME280;33181;49.246;7.372;2023-10-13T01:39:42;98760.34;;;15.40;100.00
47430;BME280;33181;49.246;7.372;2023-10-13T01:42:07;98756.38;;;15.36;100.00
47430;BME280;33181;49.246;7.372;2023-10-13T01:44:33;98758.03;;;15.37;100.00
47430;BME280;33181;49.246;7.372;2023-10-13T01:47:02;98761.78;;;15.34;100.00
47430;BME280;33181;49.246;7.372;2023-10-13T01:49:35;98755.38;;;15.37;100.00
47430;BME280;33181;49.246;7.372;2023-10-13T01:52:13;98759.84;;;15.36;100.00
47430;BME280;33181;49.246;7.372;2023-10-13T01:54:46;98759.75;;;15.28;100.00
47430;BME280;33181;49.246;7.372;2023-10-13T01:57:17;98756.97;;;15.29;100.00
47430;BME280;33181;49.246;7.372;2023-10-13T01:59:44;98760.25;;;15.23;100.00
47430;BME280;33181;49.246;7.372;2023-10-13T02:02:13;98762.19;;;15.21;100.00
47430;BME280;33181;49.246;7.372;2023-10-13T02:04:43;98759.03;;;15.18;100.00
47430;BME280;33181;49.246;7.372;2023-10-13T02:07:17;98760.03;;;15.17;100.00
47430;BME280;33181;49.246;7.372;2023-10-13T02:09:43;98757.22;;;15.18;100.00
47430;BME280;33181;49.246;7.372;2023-10-13T02:12:10;98753.25;;;15.22;100.00
47430;BME280;33181;49.246;7.372;2023-10-13T02:14:36;98748.28;;;15.19;100.00
47430;BME280;33181;49.246;7.372;2023-10-13T02:17:03;98745.63;;;15.19;100.00
47430;BME280;33181;49.246;7.372;2023-10-13T02:19:39;98750.09;;;15.19;100.00
47430;BME280;33181;49.246;7.372;2023-10-13T02:22:10;98745.94;;;15.16;100.00
47430;BME280;33181;49.246;7.372;2023-10-13T02:24:36;98737.34;;;15.14;100.00
47430;BME280;33181;49.246;7.372;2023-10-13T02:27:08;98741.41;;;15.09;100.00
47430;BME280;33181;49.246;7.372;2023-10-13T02:29:40;98739.25;;;15.04;100.00
47430;BME280;33181;49.246;7.372;2023-10-13T02:32:07;98744.53;;;15.04;100.00
47430;BME280;33181;49.246;7.372;2023-10-13T02:34:44;98741.88;;;15.04;100.00
47430;BME280;33181;49.246;7.372;2023-10-13T02:37:11;98740.72;;;15.06;100.00
47430;BME280;33181;49.246;7.372;2023-10-13T02:39:38;98741.03;;;15.03;100.00
47430;BME280;33181;49.246;7.372;2023-10-13T02:42:07;98735.75;;;15.03;100.00
47430;BME280;33181;49.246;7.372;2023-10-13T02:44:34;98735.91;;;15.02;100.00
47430;BME280;33181;49.246;7.372;2023-10-13T02:47:03;98729.63;;;15.03;100.00
47430;BME280;33181;49.246;7.372;2023-10-13T02:49:40;98725.63;;;14.99;100.00
47430;BME280;33181;49.246;7.372;2023-10-13T02:52:09;98729.28;;;14.98;100.00
47430;BME280;33181;49.246;7.372;2023-10-13T02:54:39;98737.03;;;14.99;100.00
47430;BME280;33181;49.246;7.372;2023-10-13T02:57:08;98729.09;;;14.99;100.00
47430;BME280;33181;49.246;7.372;2023-10-13T02:59:34;98728.28;;;14.99;100.00
47430;BME280;33181;49.246;7.372;2023-10-13T03:02:09;98729.56;;;14.95;100.00
47430;BME280;33181;49.246;7.372;2023-10-13T03:04:58;98729.56;;;14.95;100.00
47430;BME280;33181;49.246;7.372;2023-10-13T03:07:35;98732.22;;;14.95;100.00
47430;BME280;33181;49.246;7.372;2023-10-13T03:10:03;98726.84;;;14.87;100.00
47430;BME280;33181;49.246;7.372;2023-10-13T03:12:39;98706.28;;;14.80;100.00
47430;BME280;33181;49.246;7.372;2023-10-13T03:15:06;98707.66;;;14.84;100.00
47430;BME280;33181;49.246;7.372;2023-10-13T03:17:47;98710.69;;;14.90;100.00
47430;BME280;33181;49.246;7.372;2023-10-13T03:20:17;98706.22;;;14.90;100.00
47430;BME280;33181;49.246;7.372;2023-10-13T03:22:55;98703.25;;;14.93;100.00
47430;BME280;33181;49.246;7.372;2023-10-13T03:25:21;98702.31;;;14.94;100.00
47430;BME280;33181;49.246;7.372;2023-10-13T03:27:56;98693.81;;;14.91;100.00
47430;BME280;33181;49.246;7.372;2023-10-13T03:30:22;98690.66;;;14.87;100.00
47430;BME280;33181;49.246;7.372;2023-10-13T03:32:55;98690.13;;;14.83;100.00
47430;BME280;33181;49.246;7.372;2023-10-13T03:35:22;98670.94;;;14.81;100.00
47430;BME280;33181;49.246;7.372;2023-10-13T03:37:55;98676.84;;;14.75;100.00
47430;BME280;33181;49.246;7.372;2023-10-13T03:40:21;98672.09;;;14.79;100.00
47430;BME280;33181;49.246;7.372;2023-10-13T03:42:47;98668.22;;;14.73;100.00
47430;BME280;33181;49.246;7.372;2023-10-13T03:45:37;98660.13;;;14.75;100.00
47430;BME280;33181;49.246;7.372;2023-10-13T03:48:13;98664.59;;;14.74;100.00
47430;BME280;33181;49.246;7.372;2023-10-13T03:50:49;98661.81;;;14.76;100.00
47430;BME280;33181;49.246;7.372;2023-10-13T03:53:39;98661.28;;;14.72;100.00
47430;BME280;33181;49.246;7.372;2023-10-13T03:56:19;98663.94;;;14.72;99.85
47430;BME280;33181;49.246;7.372;2023-10-13T03:59:05;98667.84;;;14.68;100.00
47430;BME280;33181;49.246;7.372;2023-10-13T04:01:37;98665.28;;;14.58;100.00
47430;BME280;33181;49.246;7.372;2023-10-13T04:04:14;98662.94;;;14.55;100.00
47430;BME280;33181;49.246;7.372;2023-10-13T04:06:41;98655.84;;;14.56;100.00
47430;BME280;33181;49.246;7.372;2023-10-13T04:09:21;98642.91;;;14.53;100.00
47430;BME280;33181;49.246;7.372;2023-10-13T04:12:02;98642.09;;;14.52;100.00
47430;BME280;33181;49.246;7.372;2023-10-13T04:14:33;98640.44;;;14.51;100.00
47430;BME280;33181;49.246;7.372;2023-10-13T04:17:18;98649.88;;;14.54;100.00
47430;BME280;33181;49.246;7.372;2023-10-13T04:19:55;98649.88;;;14.54;100.00
47430;BME280;33181;49.246;7.372;2023-10-13T04:22:38;98653.34;;;14.54;100.00
47430;BME280;33181;49.246;7.372;2023-10-13T04:25:14;98657.50;;;14.57;100.00
47430;BME280;33181;49.246;7.372;2023-10-13T04:27:58;98653.50;;;14.53;100.00
47430;BME280;33181;49.246;7.372;2023-10-13T04:30:52;98647.59;;;14.41;100.00
47430;BME280;33181;49.246;7.372;2023-10-13T04:33:31;98651.06;;;14.42;100.00
47430;BME280;33181;49.246;7.372;2023-10-13T04:38:41;98651.97;;;14.50;100.00
47430;BME280;33181;49.246;7.372;2023-10-13T04:41:38;98652.38;;;14.55;100.00
47430;BME280;33181;49.246;7.372;2023-10-13T04:44:14;98650.94;;;14.61;100.00
47430;BME280;33181;49.246;7.372;2023-10-13T04:46:59;98644.97;;;14.59;100.00
47430;BME280;33181;49.246;7.372;2023-10-13T04:49:30;98638.72;;;14.60;100.00
47430;BME280;33181;49.246;7.372;2023-10-13T04:52:11;98636.41;;;14.65;100.00
47430;BME280;33181;49.246;7.372;2023-10-13T04:54:42;98641.06;;;14.63;100.00
47430;BME280;33181;49.246;7.372;2023-10-13T04:57:22;98634.09;;;14.62;100.00
47430;BME280;33181;49.246;7.372;2023-10-13T05:00:07;98627.84;;;14.63;100.00
47430;BME280;33181;49.246;7.372;2023-10-13T05:05:09;98617.25;;;14.63;100.00
47430;BME280;33181;49.246;7.372;2023-10-13T05:07:45;98622.97;;;14.58;100.00
47430;BME280;33181;49.246;7.372;2023-10-13T05:10:30;98619.81;;;14.55;100.00
47430;BME280;33181;49.246;7.372;2023-10-13T05:13:15;98612.41;;;14.58;100.00
47430;BME280;33181;49.246;7.372;2023-10-13T05:16:00;98617.41;;;14.62;100.00
47430;BME280;33181;49.246;7.372;2023-10-13T05:18:44;98614.13;;;14.50;100.00
47430;BME280;33181;49.246;7.372;2023-10-13T05:21:29;98617.38;;;14.44;100.00
47430;BME280;33181;49.246;7.372;2023-10-13T05:24:14;98604.91;;;14.36;100.00
47430;BME280;33181;49.246;7.372;2023-10-13T05:26:58;98604.22;;;14.34;100.00
47430;BME280;33181;49.246;7.372;2023-10-13T05:29:45;98612.03;;;14.35;100.00
47430;BME280;33181;49.246;7.372;2023-10-13T05:32:30;98600.31;;;14.38;100.00
47430;BME280;33181;49.246;7.372;2023-10-13T05:35:16;98601.16;;;14.38;100.00
47430;BME280;33181;49.246;7.372;2023-10-13T05:38:05;98610.06;;;14.37;100.00
47430;BME280;33181;49.246;7.372;2023-10-13T05:41:02;98608.69;;;14.33;100.00
47430;BME280;33181;49.246;7.372;2023-10-13T05:43:47;98608.16;;;14.30;100.00
47430;BME280;33181;49.246;7.372;2023-10-13T05:46:31;98601.22;;;14.29;100.00
47430;BME280;33181;49.246;7.372;2023-10-13T05:49:05;98602.75;;;14.31;100.00
47430;BME280;33181;49.246;7.372;2023-10-13T05:51:32;98599.13;;;14.32;100.00
47430;BME280;33181;49.246;7.372;2023-10-13T05:54:02;98601.59;;;14.34;100.00
47430;BME280;33181;49.246;7.372;2023-10-13T05:56:48;98598.94;;;14.34;100.00
47430;BME280;33181;49.246;7.372;2023-10-13T05:59:37;98599.34;;;14.39;100.00
47430;BME280;33181;49.246;7.372;2023-10-13T06:02:23;98614.19;;;14.40;100.00
47430;BME280;33181;49.246;7.372;2023-10-13T06:05:10;98610.06;;;14.37;100.00
47430;BME280;33181;49.246;7.372;2023-10-13T06:07:56;98611.41;;;14.42;100.00
47430;BME280;33181;49.246;7.372;2023-10-13T06:10:41;98611.03;;;14.36;100.00
47430;BME280;33181;49.246;7.372;2023-10-13T06:13:26;98607.88;;;14.33;100.00
47430;BME280;33181;49.246;7.372;2023-10-13T06:16:13;98604.22;;;14.34;100.00
47430;BME280;33181;49.246;7.372;2023-10-13T06:18:58;98613.06;;;14.43;100.00
47430;BME280;33181;49.246;7.372;2023-10-13T06:21:43;98614.41;;;14.47;100.00
47430;BME280;33181;49.246;7.372;2023-10-13T06:24:29;98610.25;;;14.54;100.00
47430;BME280;33181;49.246;7.372;2023-10-13T06:27:15;98615.56;;;14.62;100.00
47430;BME280;33181;49.246;7.372;2023-10-13T06:30:00;98615.28;;;14.65;100.00
47430;BME280;33181;49.246;7.372;2023-10-13T06:32:30;98610.06;;;14.73;100.00
47430;BME280;33181;49.246;7.372;2023-10-13T06:34:57;98604.16;;;14.79;100.00
47430;BME280;33181;49.246;7.372;2023-10-13T06:37:46;98614.78;;;14.88;100.00
47430;BME280;33181;49.246;7.372;2023-10-13T06:40:13;98623.28;;;14.99;100.00
47430;BME280;33181;49.246;7.372;2023-10-13T06:42:57;98627.16;;;15.05;100.00
47430;BME280;33181;49.246;7.372;2023-10-13T06:45:38;98621.91;;;15.13;100.00
47430;BME280;33181;49.246;7.372;2023-10-13T06:48:05;98618.28;;;15.14;100.00
47430;BME280;33181;49.246;7.372;2023-10-13T06:50:31;98614.94;;;15.12;100.00
47430;BME280;33181;49.246;7.372;2023-10-13T06:53:05;98605.56;;;15.18;100.00
47430;BME280;33181;49.246;7.372;2023-10-13T06:55:31;98620.50;;;15.27;100.00
47430;BME280;33181;49.246;7.372;2023-10-13T06:58:06;98618.53;;;15.29;100.00
47430;BME280;33181;49.246;7.372;2023-10-13T07:00:33;98616.78;;;15.46;100.00
47430;BME280;33181;49.246;7.372;2023-10-13T07:03:04;98614.84;;;15.56;100.00
47430;BME280;33181;49.246;7.372;2023-10-13T07:05:39;98610.25;;;15.66;100.00
47430;BME280;33181;49.246;7.372;2023-10-13T07:08:07;98615.63;;;15.74;100.00
47430;BME280;33181;49.246;7.372;2023-10-13T07:10:34;98610.38;;;15.91;100.00
47430;BME280;33181;49.246;7.372;2023-10-13T07:13:18;98610.41;;;16.07;100.00
47430;BME280;33181;49.246;7.372;2023-10-13T07:15:45;98605.16;;;16.32;100.00
47430;BME280;33181;49.246;7.372;2023-10-13T07:18:16;98605.34;;;16.55;100.00
47430;BME280;33181;49.246;7.372;2023-10-13T07:20:43;98607.19;;;16.79;100.00
47430;BME280;33181;49.246;7.372;2023-10-13T07:23:15;98610.66;;;16.96;100.00
47430;BME280;33181;49.246;7.372;2023-10-13T07:25:56;98602.34;;;16.99;100.00
47430;BME280;33181;49.246;7.372;2023-10-13T07:28:32;98614.13;;;17.12;100.00
47430;BME280;33181;49.246;7.372;2023-10-13T07:31:02;98606.81;;;17.23;100.00
47430;BME280;33181;49.246;7.372;2023-10-13T07:33:28;98605.25;;;17.36;99.47
47430;BME280;33181;49.246;7.372;2023-10-13T07:36:14;98605.06;;;17.46;99.09
47430;BME280;33181;49.246;7.372;2023-10-13T07:38:49;98609.00;;;17.58;97.35
47430;BME280;33181;49.246;7.372;2023-10-13T07:41:25;98613.41;;;17.74;96.67
47430;BME280;33181;49.246;7.372;2023-10-13T07:44:00;98612.59;;;17.82;96.65
47430;BME280;33181;49.246;7.372;2023-10-13T07:46:30;98609.75;;;17.83;94.63
47430;BME280;33181;49.246;7.372;2023-10-13T07:48:58;98601.78;;;17.83;93.54
47430;BME280;33181;49.246;7.372;2023-10-13T07:51:37;98602.22;;;17.95;92.57
47430;BME280;33181;49.246;7.372;2023-10-13T07:54:13;98605.47;;;18.05;91.67
47430;BME280;33181;49.246;7.372;2023-10-13T07:56:50;98594.69;;;18.07;91.75
47430;BME280;33181;49.246;7.372;2023-10-13T07:59:16;98588.56;;;18.29;92.48
47430;BME280;33181;49.246;7.372;2023-10-13T08:01:42;98590.44;;;18.44;92.71
47430;BME280;33181;49.246;7.372;2023-10-13T08:04:09;98585.16;;;18.59;92.95
47430;BME280;33181;49.246;7.372;2023-10-13T08:06:38;98585.00;;;18.83;90.95
47430;BME280;33181;49.246;7.372;2023-10-13T08:09:09;98589.59;;;18.89;89.96
47430;BME280;33181;49.246;7.372;2023-10-13T08:11:38;98582.91;;;19.08;88.80
47430;BME280;33181;49.246;7.372;2023-10-13T08:14:06;98587.97;;;19.18;88.91
47430;BME280;33181;49.246;7.372;2023-10-13T08:16:39;98590.53;;;19.26;88.29
47430;BME280;33181;49.246;7.372;2023-10-13T08:19:25;98588.25;;;19.38;86.94
47430;BME280;33181;49.246;7.372;2023-10-13T08:22:05;98585.50;;;19.61;86.17
47430;BME280;33181;49.246;7.372;2023-10-13T08:24:40;98590.81;;;19.61;83.37
47430;BME280;33181;49.246;7.372;2023-10-13T08:27:07;98581.59;;;19.63;82.40
47430;BME280;33181;49.246;7.372;2023-10-13T08:29:43;98579.97;;;19.77;82.02
47430;BME280;33181;49.246;7.372;2023-10-13T08:32:35;98577.56;;;19.82;80.65
47430;BME280;33181;49.246;7.372;2023-10-13T08:35:20;98572.50;;;19.87;79.64
47430;BME280;33181;49.246;7.372;2023-10-13T08:38:01;98567.81;;;19.89;78.48
47430;BME280;33181;49.246;7.372;2023-10-13T08:40:30;98569.81;;;20.02;77.53
47430;BME280;33181;49.246;7.372;2023-10-13T08:43:17;98563.59;;;20.17;79.84
47430;BME280;33181;49.246;7.372;2023-10-13T08:45:43;98562.28;;;20.27;78.08
47430;BME280;33181;49.246;7.372;2023-10-13T08:48:13;98562.75;;;20.37;77.11
47430;BME280;33181;49.246;7.372;2023-10-13T08:53:26;98555.28;;;20.69;76.83
47430;BME280;33181;49.246;7.372;2023-10-13T08:58:41;98552.69;;;21.11;72.93
47430;BME280;33181;49.246;7.372;2023-10-13T09:01:22;98537.38;;;21.33;71.78
47430;BME280;33181;49.246;7.372;2023-10-13T09:04:01;98539.41;;;21.65;69.61
47430;BME280;33181;49.246;7.372;2023-10-13T09:07:02;98543.22;;;22.04;69.63
47430;BME280;33181;49.246;7.372;2023-10-13T09:14:55;98528.03;;;22.91;65.23
47430;BME280;33181;49.246;7.372;2023-10-13T09:17:25;98534.25;;;22.98;64.80
47430;BME280;33181;49.246;7.372;2023-10-13T09:20:09;98527.00;;;22.85;63.31
47430;BME280;33181;49.246;7.372;2023-10-13T09:22:59;98535.25;;;23.04;64.06
47430;BME280;33181;49.246;7.372;2023-10-13T09:25:36;98515.41;;;23.31;63.06
47430;BME280;33181;49.246;7.372;2023-10-13T09:28:16;98523.53;;;23.56;63.52
47430;BME280;33181;49.246;7.372;2023-10-13T09:30:45;98523.69;;;23.75;62.55
47430;BME280;33181;49.246;7.372;2023-10-13T09:33:11;98512.22;;;23.48;60.09
47430;BME280;33181;49.246;7.372;2023-10-13T09:35:46;98518.84;;;23.45;60.34
47430;BME280;33181;49.246;7.372;2023-10-13T09:38:18;98516.03;;;23.27;59.33
47430;BME280;33181;49.246;7.372;2023-10-13T09:40:45;98522.44;;;23.19;61.14
47430;BME280;33181;49.246;7.372;2023-10-13T09:43:19;98527.81;;;23.12;60.56
47430;BME280;33181;49.246;7.372;2023-10-13T09:45:49;98532.41;;;22.99;60.75
47430;BME280;33181;49.246;7.372;2023-10-13T09:48:46;98521.28;;;22.95;60.74
47430;BME280;33181;49.246;7.372;2023-10-13T09:51:16;98521.19;;;23.22;61.32
47430;BME280;33181;49.246;7.372;2023-10-13T09:54:25;98515.53;;;23.50;60.13
47430;BME280;33181;49.246;7.372;2023-10-13T09:57:00;98519.59;;;23.66;58.30
47430;BME280;33181;49.246;7.372;2023-10-13T09:59:46;98517.47;;;23.81;57.41
47430;BME280;33181;49.246;7.372;2023-10-13T10:02:18;98516.94;;;24.04;56.61
47430;BME280;33181;49.246;7.372;2023-10-13T10:04:57;98511.91;;;24.14;56.08
47430;BME280;33181;49.246;7.372;2023-10-13T10:07:40;98511.75;;;24.09;56.34
47430;BME280;33181;49.246;7.372;2023-10-13T10:10:09;98504.22;;;24.24;55.44
47430;BME280;33181;49.246;7.372;2023-10-13T10:13:12;98505.00;;;24.57;55.08
47430;BME280;33181;49.246;7.372;2023-10-13T10:15:46;98495.69;;;24.78;55.83
47430;BME280;33181;49.246;7.372;2023-10-13T10:18:23;98494.00;;;25.02;53.33
47430;BME280;33181;49.246;7.372;2023-10-13T10:20:51;98497.16;;;24.98;53.22
47430;BME280;33181;49.246;7.372;2023-10-13T10:23:26;98496.03;;;24.88;53.87
47430;BME280;33181;49.246;7.372;2023-10-13T10:25:54;98492.28;;;24.89;54.09
47430;BME280;33181;49.246;7.372;2023-10-13T10:28:43;98489.50;;;24.77;54.67
47430;BME280;33181;49.246;7.372;2023-10-13T10:31:10;98489.31;;;24.54;54.97
47430;BME280;33181;49.246;7.372;2023-10-13T10:33:54;98480.94;;;24.37;54.82
47430;BME280;33181;49.246;7.372;2023-10-13T10:36:30;98483.69;;;24.30;56.06
47430;BME280;33181;49.246;7.372;2023-10-13T10:38:57;98486.38;;;24.30;56.56
47430;BME280;33181;49.246;7.372;2023-10-13T10:41:30;98481.34;;;24.15;54.86
47430;BME280;33181;49.246;7.372;2023-10-13T10:44:15;98480.06;;;24.18;54.70
47430;BME280;33181;49.246;7.372;2023-10-13T10:46:51;98475.78;;;24.42;54.88
47430;BME280;33181;49.246;7.372;2023-10-13T10:49:19;98471.50;;;24.59;54.44
47430;BME280;33181;49.246;7.372;2023-10-13T10:52:01;98468.03;;;24.95;54.02
47430;BME280;33181;49.246;7.372;2023-10-13T10:54:29;98464.84;;;25.24;53.73
47430;BME280;33181;49.246;7.372;2023-10-13T10:57:00;98461.69;;;25.45;51.21
47430;BME280;33181;49.246;7.372;2023-10-13T10:59:44;98455.13;;;25.41;50.70
47430;BME280;33181;49.246;7.372;2023-10-13T11:02:10;98460.88;;;25.26;51.01
47430;BME280;33181;49.246;7.372;2023-10-13T11:04:41;98457.88;;;25.34;51.10
47430;BME280;33181;49.246;7.372;2023-10-13T11:07:25;98449.69;;;25.59;51.88
47430;BME280;33181;49.246;7.372;2023-10-13T11:09:53;98445.78;;;25.74;50.98
47430;BME280;33181;49.246;7.372;2023-10-13T11:12:30;98444.19;;;25.84;50.95
47430;BME280;33181;49.246;7.372;2023-10-13T11:15:08;98442.38;;;25.78;50.02
47430;BME280;33181;49.246;7.372;2023-10-13T11:17:59;98443.97;;;25.86;50.82
47430;BME280;33181;49.246;7.372;2023-10-13T11:20:25;98438.44;;;25.81;50.15
47430;BME280;33181;49.246;7.372;2023-10-13T11:22:59;98434.38;;;25.60;49.34
47430;BME280;33181;49.246;7.372;2023-10-13T11:25:32;98439.47;;;25.50;49.78
47430;BME280;33181;49.246;7.372;2023-10-13T11:28:30;98434.38;;;25.60;49.49
47430;BME280;33181;49.246;7.372;2023-10-13T11:30:58;98426.16;;;25.55;48.90
47430;BME280;33181;49.246;7.372;2023-10-13T11:33:26;98425.75;;;25.39;49.63
47430;BME280;33181;49.246;7.372;2023-10-13T11:35:57;98424.06;;;25.27;49.75
47430;BME280;33181;49.246;7.372;2023-10-13T11:38:28;98420.31;;;25.28;50.33
47430;BME280;33181;49.246;7.372;2023-10-13T11:41:03;98407.31;;;25.25;50.27
47430;BME280;33181;49.246;7.372;2023-10-13T11:43:48;98411.44;;;25.09;49.31
47430;BME280;33181;49.246;7.372;2023-10-13T11:46:27;98403.38;;;25.27;50.68
47430;BME280;33181;49.246;7.372;2023-10-13T11:49:03;98398.94;;;25.63;50.40
47430;BME280;33181;49.246;7.372;2023-10-13T11:51:54;98394.34;;;25.94;49.84
47430;BME280;33181;49.246;7.372;2023-10-13T11:54:38;98398.25;;;25.98;48.95
47430;BME280;33181;49.246;7.372;2023-10-13T11:57:07;98391.56;;;26.35;49.04
47430;BME280;33181;49.246;7.372;2023-10-13T11:59:33;98394.03;;;26.61;47.53
47430;BME280;33181;49.246;7.372;2023-10-13T12:02:02;98391.81;;;26.69;47.08
47430;BME280;33181;49.246;7.372;2023-10-13T12:04:46;98375.75;;;26.74;47.61
47430;BME280;33181;49.246;7.372;2023-10-13T12:07:23;98378.66;;;26.73;46.66
47430;BME280;33181;49.246;7.372;2023-10-13T12:09:52;98370.72;;;26.54;47.08
47430;BME280;33181;49.246;7.372;2023-10-13T12:12:26;98374.16;;;26.50;47.35
47430;BME280;33181;49.246;7.372;2023-10-13T12:14:53;98365.94;;;26.21;44.96
47430;BME280;33181;49.246;7.372;2023-10-13T12:17:26;98365.25;;;26.14;45.13
47430;BME280;33181;49.246;7.372;2023-10-13T12:20:07;98354.91;;;25.87;43.47
47430;BME280;33181;49.246;7.372;2023-10-13T12:22:38;98349.25;;;25.77;44.80
47430;BME280;33181;49.246;7.372;2023-10-13T12:25:17;98352.75;;;25.78;45.04
47430;BME280;33181;49.246;7.372;2023-10-13T12:27:58;98343.28;;;25.75;44.80
47430;BME280;33181;49.246;7.372;2023-10-13T12:30:31;98342.25;;;25.76;46.24
47430;BME280;33181;49.246;7.372;2023-10-13T12:33:16;98340.94;;;25.67;44.94
47430;BME280;33181;49.246;7.372;2023-10-13T12:36:00;98339.28;;;25.66;46.12
47430;BME280;33181;49.246;7.372;2023-10-13T12:38:39;98331.56;;;25.58;44.87
47430;BME280;33181;49.246;7.372;2023-10-13T12:41:18;98331.78;;;25.56;45.39
47430;BME280;33181;49.246;7.372;2023-10-13T12:44:04;98328.06;;;25.57;45.34
47430;BME280;33181;49.246;7.372;2023-10-13T12:46:48;98322.56;;;25.64;46.02
47430;BME280;33181;49.246;7.372;2023-10-13T12:49:34;98321.19;;;25.73;44.90
47430;BME280;33181;49.246;7.372;2023-10-13T12:52:12;98317.56;;;25.79;44.99
47430;BME280;33181;49.246;7.372;2023-10-13T12:54:57;98311.72;;;25.94;44.13
47430;BME280;33181;49.246;7.372;2023-10-13T12:57:27;98308.22;;;25.94;43.96
47430;BME280;33181;49.246;7.372;2023-10-13T12:59:54;98300.50;;;25.97;44.32
47430;BME280;33181;49.246;7.372;2023-10-13T13:02:27;98291.34;;;26.10;45.42
47430;BME280;33181;49.246;7.372;2023-10-13T13:04:56;98295.94;;;26.21;44.29
47430;BME280;33181;49.246;7.372;2023-10-13T13:07:28;98286.50;;;26.47;43.01
47430;BME280;33181;49.246;7.372;2023-10-13T13:09:55;98281.28;;;26.81;42.22
47430;BME280;33181;49.246;7.372;2023-10-13T13:12:26;98277.38;;;27.17;40.85
47430;BME280;33181;49.246;7.372;2023-10-13T13:14:54;98269.97;;;27.58;40.02
47430;BME280;33181;49.246;7.372;2023-10-13T13:17:23;98268.22;;;27.81;39.97
47430;BME280;33181;49.246;7.372;2023-10-13T13:19:49;98259.81;;;27.99;37.74
47430;BME280;33181;49.246;7.372;2023-10-13T13:22:14;98265.22;;;27.99;39.40
47430;BME280;33181;49.246;7.372;2023-10-13T13:24:43;98258.47;;;27.80;38.67
47430;BME280;33181;49.246;7.372;2023-10-13T13:27:14;98263.66;;;27.36;37.93
47430;BME280;33181;49.246;7.372;2023-10-13T13:29:46;98252.31;;;27.34;38.28
47430;BME280;33181;49.246;7.372;2023-10-13T13:32:12;98256.81;;;27.28;38.58
47430;BME280;33181;49.246;7.372;2023-10-13T13:34:50;98248.66;;;27.11;38.19
47430;BME280;33181;49.246;7.372;2023-10-13T13:37:48;98241.09;;;27.08;37.45
47430;BME280;33181;49.246;7.372;2023-10-13T13:40:14;98236.81;;;27.12;36.96
47430;BME280;33181;49.246;7.372;2023-10-13T13:42:45;98230.00;;;27.21;36.69
47430;BME280;33181;49.246;7.372;2023-10-13T13:45:17;98228.53;;;27.31;36.21
47430;BME280;33181;49.246;7.372;2023-10-13T13:47:57;98227.31;;;27.38;36.58
47430;BME280;33181;49.246;7.372;2023-10-13T13:50:26;98217.25;;;27.34;36.28
47430;BME280;33181;49.246;7.372;2023-10-13T13:52:55;98211.75;;;27.45;36.41
47430;BME280;33181;49.246;7.372;2023-10-13T13:55:23;98208.34;;;27.50;36.53